createdAt,value
2022-08-17T00:01:53.366Z,95392.50
2022-08-17T00:04:40.479Z,95376.91
2022-08-17T00:07:27.414Z,95371.03
2022-08-17T00:10:14.493Z,95391.59
2022-08-17T00:13:08.811Z,95387.69
2022-08-17T00:15:59.824Z,95393.00
2022-08-17T00:19:01.979Z,95377.38
2022-08-17T00:22:32.989Z,95376.91
2022-08-17T00:25:09.180Z,95369.72
2022-08-17T00:27:56.413Z,95371.41
2022-08-17T00:30:51.074Z,95369.28
2022-08-17T00:33:42.515Z,95362.75
2022-08-17T00:36:29.939Z,95365.06
2022-08-17T00:39:16.906Z,95358.91
2022-08-17T00:42:14.076Z,95364.25
2022-08-17T00:45:01.358Z,95363.31
2022-08-17T00:47:49.531Z,95354.94
2022-08-17T00:50:37.162Z,95357.53
2022-08-17T00:53:27.181Z,95359.44
2022-08-17T00:56:32.595Z,95360.97
2022-08-17T00:59:26.011Z,95365.03
2022-08-17T01:02:15.570Z,95361.81
2022-08-17T01:05:02.975Z,95356.66
2022-08-17T01:07:53.225Z,95353.75
2022-08-17T01:11:00.582Z,95347.41
2022-08-17T01:13:48.734Z,95349.59
2022-08-17T01:16:40.173Z,95353.72
2022-08-17T01:19:32.364Z,95350.31
2022-08-17T01:22:22.527Z,95354.28
2022-08-17T01:25:11.436Z,95344.91
2022-08-17T01:27:58.441Z,95351.72
2022-08-17T01:30:58.596Z,95348.25
2022-08-17T01:33:46.377Z,95348.53
2022-08-17T01:36:33.353Z,95342.00
2022-08-17T01:39:37.756Z,95346.22
2022-08-17T01:42:40.791Z,95350.63
2022-08-17T01:45:32.220Z,95343.66
2022-08-17T01:48:20.489Z,95351.97
2022-08-17T01:51:07.771Z,95345.72
2022-08-17T01:53:58.243Z,95334.38
2022-08-17T01:56:49.869Z,95331.97
2022-08-17T01:59:36.931Z,95329.91
2022-08-17T02:02:30.489Z,95332.81
2022-08-17T02:05:18.804Z,95334.28
2022-08-17T02:08:07.436Z,95327.31
2022-08-17T02:10:55.108Z,95318.75
2022-08-17T02:13:45.625Z,95322.69
2022-08-17T02:16:37.549Z,95321.94
2022-08-17T02:19:25.417Z,95318.50
2022-08-17T02:22:12.708Z,95314.63
2022-08-17T02:25:02.339Z,95316.25
2022-08-17T02:27:49.476Z,95311.75
2022-08-17T02:31:02.028Z,95316.69
2022-08-17T02:33:44.085Z,95316.69
2022-08-17T02:36:31.313Z,95311.91
2022-08-17T02:39:18.741Z,95315.22
2022-08-17T02:42:05.777Z,95310.44
2022-08-17T02:44:52.748Z,95308.22
2022-08-17T02:47:40.447Z,95305.50
2022-08-17T02:50:27.492Z,95307.91
2022-08-17T02:53:14.545Z,95314.06
2022-08-17T02:56:01.680Z,95312.88
2022-08-17T02:58:48.631Z,95315.38
2022-08-17T03:01:35.761Z,95320.72
2022-08-17T03:04:23.462Z,95323.34
2022-08-17T03:07:10.449Z,95316.13
2022-08-17T03:09:57.433Z,95335.97
2022-08-17T03:12:45.315Z,95333.16
2022-08-17T03:15:34.512Z,95339.75
2022-08-17T03:18:25.444Z,95331.72
2022-08-17T03:21:13.275Z,95331.63
2022-08-17T03:24:00.318Z,95326.84
2022-08-17T03:26:47.476Z,95331.94
2022-08-17T03:29:34.986Z,95333.44
2022-08-17T03:32:21.930Z,95329.59
2022-08-17T03:35:09.649Z,95329.69
2022-08-17T03:38:01.347Z,95332.81
2022-08-17T03:40:58.156Z,95333.84
2022-08-17T03:43:46.275Z,95338.84
2022-08-17T03:46:52.006Z,95343.59
2022-08-17T03:49:57.516Z,95335.34
2022-08-17T03:53:03.252Z,95331.88
2022-08-17T03:56:09.118Z,95336.88
2022-08-17T03:58:56.142Z,95336.94
2022-08-17T04:01:45.185Z,95342.34
2022-08-17T04:04:32.247Z,95335.56
2022-08-17T04:07:21.649Z,95335.00
2022-08-17T04:10:08.805Z,95336.44
2022-08-17T04:12:58.217Z,95332.19
2022-08-17T04:15:47.187Z,95341.91
2022-08-17T04:18:34.225Z,95354.91
2022-08-17T04:21:22.337Z,95354.59
2022-08-17T04:24:09.454Z,95359.31
2022-08-17T04:26:56.407Z,95361.50
2022-08-17T04:29:54.779Z,95361.31
2022-08-17T04:33:08.822Z,95363.28
2022-08-17T04:35:58.732Z,95374.94
2022-08-17T04:38:46.757Z,95383.94
2022-08-17T04:41:52.134Z,95387.81
2022-08-17T04:44:39.164Z,95383.66
2022-08-17T04:47:26.176Z,95385.47
2022-08-17T04:50:13.215Z,95386.16
2022-08-17T04:53:00.646Z,95384.28
2022-08-17T04:55:51.397Z,95394.09
2022-08-17T04:58:38.835Z,95396.75
2022-08-17T05:01:28.929Z,95398.19
2022-08-17T05:04:25.158Z,95391.19
2022-08-17T05:07:24.657Z,95392.03
2022-08-17T05:10:13.619Z,95386.31
2022-08-17T05:13:28.052Z,95388.78
2022-08-17T05:16:14.983Z,95396.25
2022-08-17T05:19:02.732Z,95396.97
2022-08-17T05:21:51.915Z,95395.44
2022-08-17T05:24:43.612Z,95399.63
2022-08-17T05:27:40.602Z,95396.53
2022-08-17T05:30:29.027Z,95399.28
2022-08-17T05:33:19.407Z,95396.19
2022-08-17T05:36:12.080Z,95381.72
2022-08-17T05:39:19.013Z,95370.91
2022-08-17T05:42:06.364Z,95368.28
2022-08-17T05:44:56.691Z,95369.94
2022-08-17T05:47:46.219Z,95357.69
2022-08-17T05:50:48.637Z,95365.19
2022-08-17T05:53:36.113Z,95366.56
2022-08-17T05:56:59.889Z,95357.03
2022-08-17T05:59:53.037Z,95368.63
2022-08-17T06:03:34.373Z,95377.53
2022-08-17T06:06:31.795Z,95386.22
2022-08-17T06:09:38.446Z,95372.78
2022-08-17T06:12:40.109Z,95368.59
2022-08-17T06:15:55.305Z,95370.50
2022-08-17T06:18:46.157Z,95374.28
2022-08-17T06:21:38.107Z,95352.09
2022-08-17T06:25:01.118Z,95372.56
2022-08-17T06:28:01.724Z,95360.81
2022-08-17T06:30:59.676Z,95374.38
2022-08-17T06:33:49.156Z,95376.34
2022-08-17T06:36:40.278Z,95372.06
2022-08-17T06:39:48.573Z,95375.69
2022-08-17T06:43:14.283Z,95373.28
2022-08-17T06:46:25.621Z,95382.66
2022-08-17T06:49:12.688Z,95399.94
2022-08-17T06:52:12.338Z,95396.38
2022-08-17T06:55:26.546Z,95408.06
2022-08-17T06:58:20.818Z,95435.25
2022-08-17T07:01:24.956Z,95424.03
2022-08-17T07:04:26.359Z,95422.56
2022-08-17T07:07:32.602Z,95422.16
2022-08-17T07:10:20.390Z,95411.41
2022-08-17T07:13:51.589Z,95378.41
2022-08-17T07:16:46.674Z,95397.06
2022-08-17T07:19:38.247Z,95400.19
2022-08-17T07:22:55.263Z,95405.03
2022-08-17T07:25:45.347Z,95369.06
2022-08-17T07:28:33.908Z,95376.34
2022-08-17T07:31:21.169Z,95389.66
2022-08-17T07:34:14.621Z,95379.22
2022-08-17T07:37:05.196Z,95374.09
2022-08-17T07:39:59.705Z,95362.34
2022-08-17T07:43:21.904Z,95355.84
2022-08-17T07:46:31.574Z,95365.22
2022-08-17T07:49:24.784Z,95380.22
2022-08-17T07:52:51.743Z,95377.69
2022-08-17T07:55:41.535Z,95370.22
2022-08-17T07:58:28.659Z,95360.00
2022-08-17T08:01:15.846Z,95357.28
2022-08-17T08:08:29.220Z,95388.19
2022-08-17T08:11:33.806Z,95397.53
2022-08-17T08:14:28.512Z,95398.13
2022-08-17T08:17:24.893Z,95380.88
2022-08-17T08:20:52.763Z,95370.59
2022-08-17T08:23:52.337Z,95383.25
2022-08-17T08:27:07.209Z,95403.56
2022-08-17T08:29:57.736Z,95399.19
2022-08-17T08:33:04.287Z,95389.50
2022-08-17T08:36:12.306Z,95381.69
2022-08-17T08:39:24.820Z,95383.28
2022-08-17T08:42:23.499Z,95374.88
2022-08-17T08:45:40.212Z,95382.34
2022-08-17T08:49:01.788Z,95361.09
2022-08-17T08:52:02.958Z,95369.19
2022-08-17T08:55:02.062Z,95368.97
2022-08-17T08:58:00.022Z,95394.28
2022-08-17T09:00:54.522Z,95397.72
2022-08-17T09:04:24.807Z,95401.88
2022-08-17T09:07:29.427Z,95384.56
2022-08-17T09:10:19.650Z,95384.94
2022-08-17T09:13:22.187Z,95387.50
2022-08-17T09:16:17.314Z,95370.78
2022-08-17T09:19:08.744Z,95363.16
2022-08-17T09:22:03.485Z,95367.81
2022-08-17T09:24:57.305Z,95358.88
2022-08-17T09:27:50.543Z,95346.56
2022-08-17T09:30:45.581Z,95352.22
2022-08-17T09:33:39.998Z,95364.16
2022-08-17T09:36:42.012Z,95362.13
2022-08-17T09:39:41.974Z,95388.34
2022-08-17T09:42:35.430Z,95395.97
2022-08-17T09:45:32.514Z,95385.97
2022-08-17T09:49:02.653Z,95389.66
2022-08-17T09:51:55.536Z,95399.84
2022-08-17T09:54:44.699Z,95412.50
2022-08-17T09:57:42.415Z,95407.91
2022-08-17T10:00:35.565Z,95422.44
2022-08-17T10:03:38.302Z,95408.69
2022-08-17T10:06:35.524Z,95417.75
2022-08-17T10:09:37.031Z,95412.19
2022-08-17T10:12:33.439Z,95390.34
2022-08-17T10:15:54.124Z,95412.34
2022-08-17T10:19:05.074Z,95405.63
2022-08-17T10:22:34.799Z,95389.84
2022-08-17T10:25:54.778Z,95378.78
2022-08-17T10:29:01.223Z,95375.38
2022-08-17T10:31:54.991Z,95379.28
2022-08-17T10:35:17.454Z,95385.56
2022-08-17T10:38:24.401Z,95375.78
2022-08-17T10:41:20.883Z,95388.91
2022-08-17T10:44:56.370Z,95367.19
2022-08-17T10:48:07.243Z,95386.00
2022-08-17T10:51:00.149Z,95387.16
2022-08-17T10:53:48.559Z,95400.00
2022-08-17T10:56:48.117Z,95382.25
2022-08-17T10:59:35.081Z,95374.06
2022-08-17T11:02:38.920Z,95397.47
2022-08-17T11:05:42.901Z,95386.66
2022-08-17T11:08:37.734Z,95386.09
2022-08-17T11:11:47.968Z,95378.91
2022-08-17T11:14:53.237Z,95379.19
2022-08-17T11:17:52.105Z,95393.44
2022-08-17T11:20:47.779Z,95401.66
2022-08-17T11:24:10.538Z,95410.09
2022-08-17T11:27:07.718Z,95413.50
2022-08-17T11:30:11.337Z,95393.22
2022-08-17T11:32:59.351Z,95401.56
2022-08-17T11:35:54.444Z,95408.63
2022-08-17T11:39:11.783Z,95405.78
2022-08-17T11:42:09.870Z,95400.22
2022-08-17T11:45:31.714Z,95411.16
2022-08-17T11:49:04.780Z,95414.03
2022-08-17T11:52:01.325Z,95423.72
2022-08-17T11:54:49.062Z,95423.94
2022-08-17T11:57:42.201Z,95420.47
2022-08-17T12:00:57.265Z,95436.47
2022-08-17T12:03:54.003Z,95441.09
2022-08-17T12:06:50.153Z,95426.66
2022-08-17T12:09:45.708Z,95434.03
2022-08-17T12:12:35.824Z,95426.00
2022-08-17T12:15:31.304Z,95438.38
2022-08-17T12:18:35.845Z,95443.31
2022-08-17T12:21:31.841Z,95436.56
2022-08-17T12:24:56.790Z,95428.63
2022-08-17T12:28:05.026Z,95425.28
2022-08-17T12:30:59.761Z,95420.88
2022-08-17T12:33:47.910Z,95426.63
2022-08-17T12:36:35.481Z,95425.06
2022-08-17T12:39:24.959Z,95403.88
2022-08-17T12:42:26.113Z,95418.41
2022-08-17T12:45:29.349Z,95410.41
2022-08-17T12:48:23.522Z,95420.34
2022-08-17T12:51:12.340Z,95411.63
2022-08-17T12:53:59.375Z,95401.84
2022-08-17T12:56:47.670Z,95400.28
2022-08-17T12:59:39.749Z,95393.81
2022-08-17T13:02:31.867Z,95404.72
2022-08-17T13:05:27.734Z,95398.53
2022-08-17T13:08:19.354Z,95402.84
2022-08-17T13:11:19.331Z,95381.59
2022-08-17T13:14:10.409Z,95378.28
2022-08-17T13:17:00.299Z,95366.75
2022-08-17T13:19:50.697Z,95378.78
2022-08-17T13:22:39.043Z,95361.41
2022-08-17T13:25:27.768Z,95375.22
2022-08-17T13:28:35.717Z,95370.34
2022-08-17T13:31:28.014Z,95357.97
2022-08-17T13:34:24.052Z,95345.69
2022-08-17T13:37:41.430Z,95352.72
2022-08-17T13:40:35.939Z,95355.25
2022-08-17T13:43:46.933Z,95337.38
2022-08-17T13:46:34.191Z,95345.50
2022-08-17T13:49:21.933Z,95341.97
2022-08-17T13:52:32.043Z,95323.75
2022-08-17T13:55:22.537Z,95322.22
2022-08-17T13:58:09.545Z,95333.88
2022-08-17T14:00:56.582Z,95323.97
2022-08-17T14:03:44.283Z,95327.69
2022-08-17T14:06:54.004Z,95319.22
2022-08-17T14:10:05.143Z,95320.09
2022-08-17T14:12:52.948Z,95324.38
2022-08-17T14:15:55.486Z,95311.16
2022-08-17T14:18:56.802Z,95301.28
2022-08-17T14:21:46.520Z,95292.78
2022-08-17T14:24:41.285Z,95280.44
2022-08-17T14:27:52.496Z,95282.38
2022-08-17T14:30:41.325Z,95284.81
2022-08-17T14:33:29.037Z,95286.00
2022-08-17T14:36:16.036Z,95282.22
2022-08-17T14:39:03.120Z,95299.28
2022-08-17T14:41:50.397Z,95303.84
2022-08-17T14:44:40.302Z,95290.28
2022-08-17T14:47:27.427Z,95308.84
2022-08-17T14:50:19.638Z,95312.13
2022-08-17T14:53:09.506Z,95305.69
2022-08-17T14:55:56.464Z,95296.66
2022-08-17T14:58:43.549Z,95304.91
2022-08-17T15:01:30.708Z,95311.25
2022-08-17T15:04:18.739Z,95316.78
2022-08-17T15:07:06.584Z,95315.72
2022-08-17T15:09:53.565Z,95320.34
2022-08-17T15:12:41.429Z,95322.13
2022-08-17T15:15:29.090Z,95321.13
2022-08-17T15:18:16.669Z,95325.53
2022-08-17T15:21:05.532Z,95329.53
2022-08-17T15:23:52.573Z,95310.97
2022-08-17T15:26:40.241Z,95320.63
2022-08-17T15:29:27.242Z,95327.78
2022-08-17T15:32:32.410Z,95315.53
2022-08-17T15:35:25.194Z,95325.19
2022-08-17T15:38:15.157Z,95316.16
2022-08-17T15:41:02.840Z,95324.09
2022-08-17T15:43:52.960Z,95332.97
2022-08-17T15:46:40.037Z,95326.00
2022-08-17T15:49:28.471Z,95330.50
2022-08-17T15:52:21.588Z,95326.97
2022-08-17T15:55:14.816Z,95328.69
2022-08-17T15:58:01.956Z,95315.91
2022-08-17T16:00:53.310Z,95308.00
2022-08-17T16:04:06.764Z,95308.31
2022-08-17T16:06:54.335Z,95313.25
2022-08-17T16:09:42.114Z,95305.31
2022-08-17T16:12:29.406Z,95313.63
2022-08-17T16:15:18.088Z,95300.63
2022-08-17T16:18:05.377Z,95294.81
2022-08-17T16:20:53.313Z,95288.53
2022-08-17T16:23:40.281Z,95289.56
2022-08-17T16:26:28.585Z,95288.59
2022-08-17T16:29:15.594Z,95286.38
2022-08-17T16:32:15.995Z,95283.00
2022-08-17T16:35:10.862Z,95285.78
2022-08-17T16:37:58.891Z,95276.59
2022-08-17T16:40:45.868Z,95277.41
2022-08-17T16:43:34.102Z,95272.97
2022-08-17T16:46:21.037Z,95272.06
2022-08-17T16:49:09.050Z,95267.97
2022-08-17T16:52:03.102Z,95271.56
2022-08-17T16:54:50.461Z,95280.66
2022-08-17T16:57:37.623Z,95260.63
2022-08-17T17:00:36.164Z,95254.19
2022-08-17T17:03:26.200Z,95252.13
2022-08-17T17:06:58.641Z,95247.66
2022-08-17T17:09:48.952Z,95246.84
2022-08-17T17:13:01.910Z,95246.56
2022-08-17T17:16:00.232Z,95245.75
2022-08-17T17:19:10.537Z,95247.72
2022-08-17T17:22:12.937Z,95253.38
2022-08-17T17:25:31.589Z,95244.28
2022-08-17T17:28:43.281Z,95240.69
2022-08-17T17:31:39.477Z,95238.06
2022-08-17T17:34:32.564Z,95243.22
2022-08-17T17:37:29.068Z,95242.94
2022-08-17T17:40:23.171Z,95241.09
2022-08-17T17:43:36.825Z,95248.19
2022-08-17T17:46:29.138Z,95252.31
2022-08-17T17:49:18.337Z,95250.09
2022-08-17T17:52:18.406Z,95255.84
2022-08-17T17:55:21.466Z,95249.22
2022-08-17T17:58:43.955Z,95248.19
2022-08-17T18:01:57.385Z,95244.91
2022-08-17T18:04:57.047Z,95249.41
2022-08-17T18:07:54.406Z,95253.16
2022-08-17T18:10:57.373Z,95244.13
2022-08-17T18:13:56.439Z,95253.84
2022-08-17T18:16:45.000Z,95250.75
2022-08-17T18:19:32.663Z,95245.44
2022-08-17T18:22:22.169Z,95248.34
2022-08-17T18:25:44.541Z,95242.59
2022-08-17T18:28:41.107Z,95250.81
2022-08-17T18:31:28.762Z,95245.25
2022-08-17T18:34:45.753Z,95236.81
2022-08-17T18:37:43.235Z,95231.06
2022-08-17T18:40:34.948Z,95238.25
2022-08-17T18:43:28.627Z,95238.25
2022-08-17T18:46:36.589Z,95240.28
2022-08-17T18:49:29.073Z,95231.28
2022-08-17T18:52:23.219Z,95242.56
2022-08-17T18:55:20.654Z,95235.78
2022-08-17T18:58:20.967Z,95239.66
2022-08-17T19:01:19.799Z,95243.16
2022-08-17T19:04:13.436Z,95242.03
2022-08-17T19:07:23.870Z,95248.81
2022-08-17T19:10:45.976Z,95241.28
2022-08-17T19:13:57.706Z,95240.06
2022-08-17T19:17:11.692Z,95237.44
2022-08-17T19:20:19.779Z,95248.31
2022-08-17T19:23:35.581Z,95248.53
2022-08-17T19:26:53.885Z,95257.13
2022-08-17T19:30:00.086Z,95249.94
2022-08-17T19:32:51.113Z,95252.19
2022-08-17T19:35:59.012Z,95255.50
2022-08-17T19:39:16.947Z,95263.69
2022-08-17T19:42:06.949Z,95269.47
2022-08-17T19:45:32.740Z,95277.00
2022-08-17T19:48:40.323Z,95279.13
2022-08-17T19:52:05.043Z,95278.41
2022-08-17T19:55:04.732Z,95282.56
2022-08-17T19:58:00.662Z,95285.84
2022-08-17T20:00:51.568Z,95275.06
2022-08-17T20:04:02.081Z,95275.38
2022-08-17T20:06:49.623Z,95296.38
2022-08-17T20:10:13.020Z,95314.25
2022-08-17T20:13:07.118Z,95321.22
2022-08-17T20:15:54.298Z,95327.91
2022-08-17T20:18:58.963Z,95313.59
2022-08-17T20:21:55.054Z,95307.53
2022-08-17T20:24:54.471Z,95335.03
2022-08-17T20:27:53.821Z,95346.03
2022-08-17T20:30:53.275Z,95388.28
2022-08-17T20:33:40.255Z,95402.13
2022-08-17T20:36:28.494Z,95402.97
2022-08-17T20:39:40.979Z,95437.03
2022-08-17T20:42:31.047Z,95466.03
2022-08-17T20:45:41.178Z,95473.50
2022-08-17T20:48:38.407Z,95484.72
2022-08-17T20:51:31.625Z,95496.63
2022-08-17T20:54:18.531Z,95522.19
2022-08-17T20:57:13.826Z,95534.41
2022-08-17T21:00:16.477Z,95538.75
2022-08-17T21:03:22.709Z,95535.31
2022-08-17T21:06:17.537Z,95530.78
2022-08-17T21:09:31.853Z,95528.38
2022-08-17T21:12:42.581Z,95503.44
2022-08-17T21:15:57.288Z,95491.31
2022-08-17T21:19:19.201Z,95476.22
2022-08-17T21:22:28.536Z,95483.72
2022-08-17T21:25:32.368Z,95484.56
2022-08-17T21:29:00.370Z,95491.31
2022-08-17T21:32:09.627Z,95509.69
2022-08-17T21:35:24.909Z,95525.03
2022-08-17T21:38:15.702Z,95536.66
2022-08-17T21:41:02.749Z,95554.69
2022-08-17T21:43:52.287Z,95570.13
2022-08-17T21:46:43.001Z,95593.59
2022-08-17T21:49:37.850Z,95618.00
2022-08-17T21:52:27.185Z,95621.78
2022-08-17T21:55:28.280Z,95624.34
2022-08-17T21:58:32.467Z,95654.00
2022-08-17T22:01:50.469Z,95695.34
2022-08-17T22:04:41.355Z,95707.00
2022-08-17T22:07:43.288Z,95687.25
2022-08-17T22:10:35.097Z,95675.34
2022-08-17T22:13:29.806Z,95689.00
2022-08-17T22:16:28.507Z,95682.69
2022-08-17T22:19:18.203Z,95669.28
2022-08-17T22:22:11.179Z,95675.91
2022-08-17T22:25:01.485Z,95672.63
2022-08-17T22:27:58.256Z,95666.47
2022-08-17T22:31:14.651Z,95669.25
2022-08-17T22:34:04.698Z,95660.00
2022-08-17T22:37:21.597Z,95673.91
2022-08-17T22:40:26.718Z,95678.22
2022-08-17T22:43:13.776Z,95672.47
2022-08-17T22:46:00.742Z,95674.34
2022-08-17T22:48:54.919Z,95674.75
2022-08-17T22:51:42.675Z,95682.78
2022-08-17T22:54:48.514Z,95680.75
2022-08-17T22:57:54.634Z,95679.13
2022-08-17T23:00:47.898Z,95676.72
2022-08-17T23:03:54.005Z,95666.47
2022-08-17T23:06:44.221Z,95672.31
2022-08-17T23:09:31.189Z,95675.56
2022-08-17T23:12:26.543Z,95677.88
2022-08-17T23:15:17.466Z,95670.66
2022-08-17T23:18:05.203Z,95656.69
2022-08-17T23:20:52.199Z,95647.44
2022-08-17T23:23:39.311Z,95639.75
2022-08-17T23:26:27.827Z,95629.41
2022-08-17T23:29:14.914Z,95627.59
2022-08-17T23:32:04.781Z,95640.22
2022-08-17T23:34:52.034Z,95647.13
2022-08-17T23:37:40.652Z,95651.78
2022-08-17T23:40:30.351Z,95656.22
2022-08-17T23:43:24.252Z,95669.50
2022-08-17T23:46:12.885Z,95663.47
2022-08-17T23:49:00.502Z,95661.31
2022-08-17T23:51:48.864Z,95671.31
2022-08-17T23:54:43.893Z,95671.66
2022-08-17T23:57:33.155Z,95674.28
